sensor_id;sensor_type;location;lat;lon;timestamp;P1;durP1;ratioP1;P2;durP2;ratioP2
6850;SDS011;3464;42.728;23.296;2022-10-16T00:01:31;33.77;;;19.70;;
6850;SDS011;3464;42.728;23.296;2022-10-16T00:03:59;31.70;;;19.83;;
6850;SDS011;3464;42.728;23.296;2022-10-16T00:06:25;34.10;;;20.53;;
6850;SDS011;3464;42.728;23.296;2022-10-16T00:08:51;34.00;;;20.27;;
6850;SDS011;3464;42.728;23.296;2022-10-16T00:11:20;28.13;;;16.20;;
6850;SDS011;3464;42.728;23.296;2022-10-16T00:13:46;27.33;;;15.30;;
6850;SDS011;3464;42.728;23.296;2022-10-16T00:16:12;26.13;;;14.47;;
6850;SDS011;3464;42.728;23.296;2022-10-16T00:18:38;26.77;;;15.43;;
6850;SDS011;3464;42.728;23.296;2022-10-16T00:21:06;27.10;;;16.03;;
6850;SDS011;3464;42.728;23.296;2022-10-16T00:23:34;29.10;;;17.50;;
6850;SDS011;3464;42.728;23.296;2022-10-16T00:26:03;32.27;;;18.07;;
6850;SDS011;3464;42.728;23.296;2022-10-16T00:28:28;27.50;;;16.60;;
6850;SDS011;3464;42.728;23.296;2022-10-16T00:30:54;30.40;;;17.20;;
6850;SDS011;3464;42.728;23.296;2022-10-16T00:33:21;32.70;;;17.07;;
6850;SDS011;3464;42.728;23.296;2022-10-16T00:35:47;28.63;;;17.30;;
6850;SDS011;3464;42.728;23.296;2022-10-16T00:38:14;26.43;;;15.10;;
6850;SDS011;3464;42.728;23.296;2022-10-16T00:40:40;28.50;;;17.10;;
6850;SDS011;3464;42.728;23.296;2022-10-16T00:43:12;30.13;;;17.60;;
6850;SDS011;3464;42.728;23.296;2022-10-16T00:45:35;28.90;;;16.70;;
6850;SDS011;3464;42.728;23.296;2022-10-16T00:48:02;26.70;;;17.00;;
6850;SDS011;3464;42.728;23.296;2022-10-16T00:50:30;32.00;;;16.90;;
6850;SDS011;3464;42.728;23.296;2022-10-16T00:52:56;29.27;;;17.47;;
6850;SDS011;3464;42.728;23.296;2022-10-16T00:55:23;33.20;;;17.13;;
6850;SDS011;3464;42.728;23.296;2022-10-16T00:57:49;30.40;;;17.90;;
6850;SDS011;3464;42.728;23.296;2022-10-16T01:00:18;29.07;;;17.57;;
6850;SDS011;3464;42.728;23.296;2022-10-16T01:02:43;32.10;;;17.90;;
6850;SDS011;3464;42.728;23.296;2022-10-16T01:05:11;26.97;;;16.97;;
6850;SDS011;3464;42.728;23.296;2022-10-16T01:10:21;29.07;;;16.13;;
6850;SDS011;3464;42.728;23.296;2022-10-16T01:13:17;29.47;;;16.90;;
6850;SDS011;3464;42.728;23.296;2022-10-16T01:15:47;29.80;;;16.40;;
6850;SDS011;3464;42.728;23.296;2022-10-16T01:18:14;28.10;;;16.30;;
6850;SDS011;3464;42.728;23.296;2022-10-16T01:20:44;27.70;;;16.40;;
6850;SDS011;3464;42.728;23.296;2022-10-16T01:26:01;27.13;;;15.30;;
6850;SDS011;3464;42.728;23.296;2022-10-16T01:28:49;27.37;;;16.43;;
6850;SDS011;3464;42.728;23.296;2022-10-16T01:31:14;28.47;;;16.37;;
6850;SDS011;3464;42.728;23.296;2022-10-16T01:33:42;31.83;;;16.77;;
6850;SDS011;3464;42.728;23.296;2022-10-16T01:36:10;27.77;;;14.70;;
6850;SDS011;3464;42.728;23.296;2022-10-16T01:38:38;26.47;;;16.30;;
6850;SDS011;3464;42.728;23.296;2022-10-16T01:41:11;23.57;;;12.97;;
6850;SDS011;3464;42.728;23.296;2022-10-16T01:44:22;23.00;;;14.00;;
6850;SDS011;3464;42.728;23.296;2022-10-16T01:46:42;27.90;;;16.10;;
6850;SDS011;3464;42.728;23.296;2022-10-16T01:49:10;28.53;;;16.80;;
6850;SDS011;3464;42.728;23.296;2022-10-16T01:51:36;28.17;;;17.50;;
6850;SDS011;3464;42.728;23.296;2022-10-16T01:54:03;28.40;;;15.60;;
6850;SDS011;3464;42.728;23.296;2022-10-16T01:56:29;25.13;;;15.30;;
6850;SDS011;3464;42.728;23.296;2022-10-16T01:59:01;24.20;;;13.73;;
6850;SDS011;3464;42.728;23.296;2022-10-16T02:01:33;27.00;;;15.60;;
6850;SDS011;3464;42.728;23.296;2022-10-16T02:03:59;22.67;;;13.70;;
6850;SDS011;3464;42.728;23.296;2022-10-16T02:06:25;24.80;;;13.20;;
6850;SDS011;3464;42.728;23.296;2022-10-16T02:08:53;29.57;;;14.27;;
6850;SDS011;3464;42.728;23.296;2022-10-16T02:11:19;24.07;;;12.60;;
6850;SDS011;3464;42.728;23.296;2022-10-16T02:13:48;24.13;;;13.27;;
6850;SDS011;3464;42.728;23.296;2022-10-16T02:16:14;19.57;;;10.33;;
6850;SDS011;3464;42.728;23.296;2022-10-16T02:18:41;19.20;;;11.23;;
6850;SDS011;3464;42.728;23.296;2022-10-16T02:21:26;21.00;;;10.60;;
6850;SDS011;3464;42.728;23.296;2022-10-16T02:23:55;18.10;;;10.63;;
6850;SDS011;3464;42.728;23.296;2022-10-16T02:26:25;19.97;;;10.50;;
6850;SDS011;3464;42.728;23.296;2022-10-16T02:28:51;18.70;;;10.67;;
6850;SDS011;3464;42.728;23.296;2022-10-16T02:31:16;18.53;;;10.73;;
6850;SDS011;3464;42.728;23.296;2022-10-16T02:33:42;21.53;;;11.23;;
6850;SDS011;3464;42.728;23.296;2022-10-16T02:36:10;21.43;;;11.33;;
6850;SDS011;3464;42.728;23.296;2022-10-16T02:38:36;20.37;;;11.93;;
6850;SDS011;3464;42.728;23.296;2022-10-16T02:41:04;19.30;;;11.03;;
6850;SDS011;3464;42.728;23.296;2022-10-16T02:43:30;24.37;;;11.33;;
6850;SDS011;3464;42.728;23.296;2022-10-16T02:45:58;21.63;;;12.20;;
6850;SDS011;3464;42.728;23.296;2022-10-16T02:48:25;20.60;;;11.70;;
6850;SDS011;3464;42.728;23.296;2022-10-16T02:50:51;20.00;;;11.03;;
6850;SDS011;3464;42.728;23.296;2022-10-16T02:53:19;22.20;;;11.60;;
6850;SDS011;3464;42.728;23.296;2022-10-16T02:55:45;20.73;;;12.77;;
6850;SDS011;3464;42.728;23.296;2022-10-16T02:58:12;27.20;;;13.27;;
6850;SDS011;3464;42.728;23.296;2022-10-16T03:00:38;24.70;;;13.53;;
6850;SDS011;3464;42.728;23.296;2022-10-16T03:03:06;24.63;;;12.77;;
6850;SDS011;3464;42.728;23.296;2022-10-16T03:05:33;26.80;;;14.60;;
6850;SDS011;3464;42.728;23.296;2022-10-16T03:08:00;27.23;;;14.67;;
6850;SDS011;3464;42.728;23.296;2022-10-16T03:10:28;28.20;;;15.13;;
6850;SDS011;3464;42.728;23.296;2022-10-16T03:12:56;27.23;;;13.67;;
6850;SDS011;3464;42.728;23.296;2022-10-16T03:15:22;30.20;;;15.80;;
6850;SDS011;3464;42.728;23.296;2022-10-16T03:17:49;26.70;;;15.60;;
6850;SDS011;3464;42.728;23.296;2022-10-16T03:20:15;32.53;;;16.40;;
6850;SDS011;3464;42.728;23.296;2022-10-16T03:22:42;31.27;;;16.40;;
6850;SDS011;3464;42.728;23.296;2022-10-16T03:25:08;34.87;;;15.93;;
6850;SDS011;3464;42.728;23.296;2022-10-16T03:27:35;28.40;;;16.97;;
6850;SDS011;3464;42.728;23.296;2022-10-16T03:30:02;27.57;;;16.47;;
6850;SDS011;3464;42.728;23.296;2022-10-16T03:32:28;25.50;;;14.97;;
6850;SDS011;3464;42.728;23.296;2022-10-16T03:34:55;30.40;;;17.07;;
6850;SDS011;3464;42.728;23.296;2022-10-16T03:37:22;30.30;;;15.93;;
6850;SDS011;3464;42.728;23.296;2022-10-16T03:39:48;28.23;;;15.60;;
6850;SDS011;3464;42.728;23.296;2022-10-16T03:42:15;28.60;;;16.20;;
6850;SDS011;3464;42.728;23.296;2022-10-16T03:44:41;30.37;;;15.60;;
6850;SDS011;3464;42.728;23.296;2022-10-16T03:47:08;25.73;;;15.17;;
6850;SDS011;3464;42.728;23.296;2022-10-16T03:49:34;24.60;;;13.70;;
6850;SDS011;3464;42.728;23.296;2022-10-16T03:52:01;23.03;;;13.47;;
6850;SDS011;3464;42.728;23.296;2022-10-16T03:54:27;22.70;;;13.50;;
6850;SDS011;3464;42.728;23.296;2022-10-16T03:56:54;28.17;;;15.93;;
6850;SDS011;3464;42.728;23.296;2022-10-16T03:59:20;30.47;;;15.17;;
6850;SDS011;3464;42.728;23.296;2022-10-16T04:01:47;23.90;;;14.33;;
6850;SDS011;3464;42.728;23.296;2022-10-16T04:04:13;23.73;;;13.90;;
6850;SDS011;3464;42.728;23.296;2022-10-16T04:06:40;26.27;;;14.50;;
6850;SDS011;3464;42.728;23.296;2022-10-16T04:09:07;26.40;;;14.60;;
6850;SDS011;3464;42.728;23.296;2022-10-16T04:11:33;24.83;;;14.43;;
6850;SDS011;3464;42.728;23.296;2022-10-16T04:14:00;25.90;;;14.73;;
6850;SDS011;3464;42.728;23.296;2022-10-16T04:16:26;29.20;;;14.93;;
6850;SDS011;3464;42.728;23.296;2022-10-16T04:18:53;22.60;;;13.67;;
6850;SDS011;3464;42.728;23.296;2022-10-16T04:21:20;23.40;;;14.30;;
6850;SDS011;3464;42.728;23.296;2022-10-16T04:23:47;28.43;;;15.30;;
6850;SDS011;3464;42.728;23.296;2022-10-16T04:26:13;26.17;;;14.70;;
6850;SDS011;3464;42.728;23.296;2022-10-16T04:28:40;26.83;;;15.80;;
6850;SDS011;3464;42.728;23.296;2022-10-16T04:31:07;28.90;;;15.60;;
6850;SDS011;3464;42.728;23.296;2022-10-16T04:33:33;28.33;;;15.20;;
6850;SDS011;3464;42.728;23.296;2022-10-16T04:36:00;29.47;;;15.47;;
6850;SDS011;3464;42.728;23.296;2022-10-16T04:38:26;36.27;;;16.03;;
6850;SDS011;3464;42.728;23.296;2022-10-16T04:40:53;24.90;;;15.70;;
6850;SDS011;3464;42.728;23.296;2022-10-16T04:43:19;26.50;;;16.33;;
6850;SDS011;3464;42.728;23.296;2022-10-16T04:45:46;25.73;;;15.80;;
6850;SDS011;3464;42.728;23.296;2022-10-16T04:48:12;28.90;;;16.00;;
6850;SDS011;3464;42.728;23.296;2022-10-16T04:50:39;28.40;;;16.47;;
6850;SDS011;3464;42.728;23.296;2022-10-16T04:53:06;31.60;;;16.10;;
6850;SDS011;3464;42.728;23.296;2022-10-16T04:55:32;26.90;;;16.73;;
6850;SDS011;3464;42.728;23.296;2022-10-16T04:57:58;25.33;;;14.73;;
6850;SDS011;3464;42.728;23.296;2022-10-16T05:00:25;25.87;;;15.80;;
6850;SDS011;3464;42.728;23.296;2022-10-16T05:02:52;26.57;;;15.77;;
6850;SDS011;3464;42.728;23.296;2022-10-16T05:05:18;29.50;;;15.60;;
6850;SDS011;3464;42.728;23.296;2022-10-16T05:07:46;26.30;;;15.87;;
6850;SDS011;3464;42.728;23.296;2022-10-16T05:10:13;27.03;;;14.60;;
6850;SDS011;3464;42.728;23.296;2022-10-16T05:12:39;30.10;;;14.87;;
6850;SDS011;3464;42.728;23.296;2022-10-16T05:15:06;29.10;;;12.70;;
6850;SDS011;3464;42.728;23.296;2022-10-16T05:17:33;25.80;;;13.13;;
6850;SDS011;3464;42.728;23.296;2022-10-16T05:19:59;24.97;;;9.83;;
6850;SDS011;3464;42.728;23.296;2022-10-16T05:22:26;22.13;;;9.83;;
6850;SDS011;3464;42.728;23.296;2022-10-16T05:24:52;22.17;;;8.00;;
6850;SDS011;3464;42.728;23.296;2022-10-16T05:27:19;24.23;;;11.67;;
6850;SDS011;3464;42.728;23.296;2022-10-16T05:29:46;19.83;;;9.70;;
6850;SDS011;3464;42.728;23.296;2022-10-16T05:32:12;24.93;;;10.00;;
6850;SDS011;3464;42.728;23.296;2022-10-16T05:34:39;25.70;;;12.60;;
6850;SDS011;3464;42.728;23.296;2022-10-16T05:37:05;28.50;;;13.80;;
6850;SDS011;3464;42.728;23.296;2022-10-16T05:39:32;22.37;;;10.80;;
6850;SDS011;3464;42.728;23.296;2022-10-16T05:41:58;19.07;;;8.97;;
6850;SDS011;3464;42.728;23.296;2022-10-16T05:44:25;18.47;;;7.67;;
6850;SDS011;3464;42.728;23.296;2022-10-16T05:46:51;21.50;;;8.80;;
6850;SDS011;3464;42.728;23.296;2022-10-16T05:49:18;24.27;;;10.80;;
6850;SDS011;3464;42.728;23.296;2022-10-16T05:51:44;20.50;;;10.70;;
6850;SDS011;3464;42.728;23.296;2022-10-16T05:54:11;29.57;;;12.30;;
6850;SDS011;3464;42.728;23.296;2022-10-16T05:56:38;27.03;;;11.17;;
6850;SDS011;3464;42.728;23.296;2022-10-16T05:59:05;22.33;;;9.37;;
6850;SDS011;3464;42.728;23.296;2022-10-16T06:01:32;23.80;;;9.40;;
6850;SDS011;3464;42.728;23.296;2022-10-16T06:03:58;15.17;;;6.57;;
6850;SDS011;3464;42.728;23.296;2022-10-16T06:06:26;17.27;;;6.70;;
6850;SDS011;3464;42.728;23.296;2022-10-16T06:08:52;15.90;;;6.93;;
6850;SDS011;3464;42.728;23.296;2022-10-16T06:11:19;21.30;;;7.20;;
6850;SDS011;3464;42.728;23.296;2022-10-16T06:13:48;18.93;;;7.90;;
6850;SDS011;3464;42.728;23.296;2022-10-16T06:16:12;17.67;;;6.80;;
6850;SDS011;3464;42.728;23.296;2022-10-16T06:18:38;16.93;;;7.50;;
6850;SDS011;3464;42.728;23.296;2022-10-16T06:21:09;20.43;;;7.43;;
6850;SDS011;3464;42.728;23.296;2022-10-16T06:23:34;18.90;;;7.10;;
6850;SDS011;3464;42.728;23.296;2022-10-16T06:26:05;20.40;;;7.53;;
6850;SDS011;3464;42.728;23.296;2022-10-16T06:28:33;16.73;;;7.30;;
6850;SDS011;3464;42.728;23.296;2022-10-16T06:31:00;18.70;;;7.37;;
6850;SDS011;3464;42.728;23.296;2022-10-16T06:33:27;24.27;;;7.90;;
6850;SDS011;3464;42.728;23.296;2022-10-16T06:35:53;18.00;;;8.17;;
6850;SDS011;3464;42.728;23.296;2022-10-16T06:38:20;18.10;;;7.43;;
6850;SDS011;3464;42.728;23.296;2022-10-16T06:40:47;15.83;;;7.60;;
6850;SDS011;3464;42.728;23.296;2022-10-16T06:43:13;18.93;;;8.03;;
6850;SDS011;3464;42.728;23.296;2022-10-16T06:45:41;17.63;;;7.30;;
6850;SDS011;3464;42.728;23.296;2022-10-16T06:48:08;18.27;;;8.07;;
6850;SDS011;3464;42.728;23.296;2022-10-16T06:50:35;19.10;;;8.73;;
6850;SDS011;3464;42.728;23.296;2022-10-16T06:53:02;20.90;;;8.23;;
6850;SDS011;3464;42.728;23.296;2022-10-16T06:55:29;20.93;;;8.80;;
6850;SDS011;3464;42.728;23.296;2022-10-16T06:57:57;23.20;;;8.10;;
6850;SDS011;3464;42.728;23.296;2022-10-16T07:00:23;17.93;;;8.33;;
6850;SDS011;3464;42.728;23.296;2022-10-16T07:02:50;23.50;;;9.30;;
6850;SDS011;3464;42.728;23.296;2022-10-16T07:05:16;19.60;;;8.23;;
6850;SDS011;3464;42.728;23.296;2022-10-16T07:07:43;15.40;;;7.77;;
6850;SDS011;3464;42.728;23.296;2022-10-16T07:10:09;18.73;;;8.40;;
6850;SDS011;3464;42.728;23.296;2022-10-16T07:12:36;21.53;;;9.37;;
6850;SDS011;3464;42.728;23.296;2022-10-16T07:15:03;19.97;;;9.37;;
6850;SDS011;3464;42.728;23.296;2022-10-16T07:17:30;19.67;;;8.37;;
6850;SDS011;3464;42.728;23.296;2022-10-16T07:19:58;20.30;;;9.00;;
6850;SDS011;3464;42.728;23.296;2022-10-16T07:22:25;25.23;;;9.70;;
6850;SDS011;3464;42.728;23.296;2022-10-16T07:24:52;17.70;;;9.13;;
6850;SDS011;3464;42.728;23.296;2022-10-16T07:27:18;23.50;;;9.60;;
6850;SDS011;3464;42.728;23.296;2022-10-16T07:29:45;21.40;;;9.80;;
6850;SDS011;3464;42.728;23.296;2022-10-16T07:32:11;20.97;;;10.40;;
6850;SDS011;3464;42.728;23.296;2022-10-16T07:34:38;22.37;;;10.10;;
6850;SDS011;3464;42.728;23.296;2022-10-16T07:37:06;20.07;;;10.50;;
6850;SDS011;3464;42.728;23.296;2022-10-16T07:39:32;20.33;;;10.13;;
6850;SDS011;3464;42.728;23.296;2022-10-16T07:41:59;18.63;;;10.63;;
6850;SDS011;3464;42.728;23.296;2022-10-16T07:44:25;20.27;;;10.70;;
6850;SDS011;3464;42.728;23.296;2022-10-16T07:46:52;20.43;;;10.43;;
6850;SDS011;3464;42.728;23.296;2022-10-16T07:49:18;22.57;;;11.13;;
6850;SDS011;3464;42.728;23.296;2022-10-16T07:51:45;24.00;;;11.73;;
6850;SDS011;3464;42.728;23.296;2022-10-16T07:54:11;21.30;;;11.30;;
6850;SDS011;3464;42.728;23.296;2022-10-16T07:56:38;25.87;;;11.57;;
6850;SDS011;3464;42.728;23.296;2022-10-16T07:59:04;22.90;;;11.60;;
6850;SDS011;3464;42.728;23.296;2022-10-16T08:01:31;22.20;;;11.87;;
6850;SDS011;3464;42.728;23.296;2022-10-16T08:03:58;24.17;;;11.60;;
6850;SDS011;3464;42.728;23.296;2022-10-16T08:06:24;22.83;;;9.83;;
6850;SDS011;3464;42.728;23.296;2022-10-16T08:08:51;22.40;;;11.20;;
6850;SDS011;3464;42.728;23.296;2022-10-16T08:11:18;22.03;;;11.07;;
6850;SDS011;3464;42.728;23.296;2022-10-16T08:13:45;19.33;;;10.07;;
6850;SDS011;3464;42.728;23.296;2022-10-16T08:16:11;22.60;;;11.20;;
6850;SDS011;3464;42.728;23.296;2022-10-16T08:18:39;21.93;;;10.50;;
6850;SDS011;3464;42.728;23.296;2022-10-16T08:21:04;24.93;;;9.93;;
6850;SDS011;3464;42.728;23.296;2022-10-16T08:23:31;24.17;;;10.33;;
6850;SDS011;3464;42.728;23.296;2022-10-16T08:26:03;25.90;;;10.57;;
6850;SDS011;3464;42.728;23.296;2022-10-16T08:28:24;20.27;;;10.40;;
6850;SDS011;3464;42.728;23.296;2022-10-16T08:30:50;19.97;;;10.00;;
6850;SDS011;3464;42.728;23.296;2022-10-16T08:33:17;18.87;;;10.00;;
6850;SDS011;3464;42.728;23.296;2022-10-16T08:35:50;24.83;;;9.97;;
6850;SDS011;3464;42.728;23.296;2022-10-16T08:38:25;19.60;;;9.23;;
6850;SDS011;3464;42.728;23.296;2022-10-16T08:40:52;24.97;;;7.97;;
6850;SDS011;3464;42.728;23.296;2022-10-16T08:43:35;16.87;;;7.80;;
6850;SDS011;3464;42.728;23.296;2022-10-16T08:46:11;16.20;;;7.87;;
6850;SDS011;3464;42.728;23.296;2022-10-16T08:48:46;18.07;;;7.70;;
6850;SDS011;3464;42.728;23.296;2022-10-16T08:51:19;17.63;;;6.80;;
6850;SDS011;3464;42.728;23.296;2022-10-16T08:53:43;18.60;;;6.33;;
6850;SDS011;3464;42.728;23.296;2022-10-16T08:56:15;14.17;;;5.97;;
6850;SDS011;3464;42.728;23.296;2022-10-16T08:58:42;12.73;;;5.57;;
6850;SDS011;3464;42.728;23.296;2022-10-16T09:01:11;12.10;;;6.10;;
6850;SDS011;3464;42.728;23.296;2022-10-16T09:03:40;13.03;;;6.40;;
6850;SDS011;3464;42.728;23.296;2022-10-16T09:06:42;15.00;;;5.50;;
6850;SDS011;3464;42.728;23.296;2022-10-16T09:17:25;14.77;;;5.10;;
6850;SDS011;3464;42.728;23.296;2022-10-16T09:19:53;13.80;;;4.80;;
6850;SDS011;3464;42.728;23.296;2022-10-16T09:22:20;15.90;;;5.60;;
6850;SDS011;3464;42.728;23.296;2022-10-16T09:24:46;13.63;;;5.40;;
6850;SDS011;3464;42.728;23.296;2022-10-16T09:27:13;16.70;;;6.47;;
6850;SDS011;3464;42.728;23.296;2022-10-16T09:29:39;13.37;;;5.57;;
6850;SDS011;3464;42.728;23.296;2022-10-16T09:32:10;12.17;;;4.57;;
6850;SDS011;3464;42.728;23.296;2022-10-16T09:34:36;11.87;;;4.60;;
6850;SDS011;3464;42.728;23.296;2022-10-16T09:37:10;12.73;;;4.60;;
6850;SDS011;3464;42.728;23.296;2022-10-16T09:39:53;18.10;;;5.37;;
6850;SDS011;3464;42.728;23.296;2022-10-16T09:42:22;13.63;;;5.30;;
6850;SDS011;3464;42.728;23.296;2022-10-16T09:45:03;12.90;;;5.13;;
6850;SDS011;3464;42.728;23.296;2022-10-16T09:47:31;12.57;;;4.77;;
6850;SDS011;3464;42.728;23.296;2022-10-16T09:49:59;14.20;;;5.10;;
6850;SDS011;3464;42.728;23.296;2022-10-16T09:52:25;17.80;;;5.60;;
6850;SDS011;3464;42.728;23.296;2022-10-16T09:54:52;13.77;;;4.97;;
6850;SDS011;3464;42.728;23.296;2022-10-16T09:57:18;13.83;;;5.37;;
6850;SDS011;3464;42.728;23.296;2022-10-16T09:59:46;12.73;;;4.63;;
6850;SDS011;3464;42.728;23.296;2022-10-16T10:02:11;14.53;;;5.10;;
6850;SDS011;3464;42.728;23.296;2022-10-16T10:04:40;12.80;;;4.23;;
6850;SDS011;3464;42.728;23.296;2022-10-16T10:07:15;13.90;;;5.43;;
6850;SDS011;3464;42.728;23.296;2022-10-16T10:09:37;14.30;;;4.80;;
6850;SDS011;3464;42.728;23.296;2022-10-16T10:12:03;17.13;;;5.10;;
6850;SDS011;3464;42.728;23.296;2022-10-16T10:14:35;16.07;;;5.30;;
6850;SDS011;3464;42.728;23.296;2022-10-16T10:17:12;12.00;;;5.10;;
6850;SDS011;3464;42.728;23.296;2022-10-16T10:19:53;18.10;;;5.23;;
6850;SDS011;3464;42.728;23.296;2022-10-16T10:22:28;13.17;;;4.60;;
6850;SDS011;3464;42.728;23.296;2022-10-16T10:25:28;15.83;;;4.80;;
6850;SDS011;3464;42.728;23.296;2022-10-16T10:28:09;15.63;;;4.43;;
6850;SDS011;3464;42.728;23.296;2022-10-16T10:33:41;17.87;;;7.40;;
6850;SDS011;3464;42.728;23.296;2022-10-16T10:36:12;13.43;;;5.20;;
6850;SDS011;3464;42.728;23.296;2022-10-16T10:38:45;12.33;;;4.47;;
6850;SDS011;3464;42.728;23.296;2022-10-16T10:41:22;12.80;;;4.50;;
6850;SDS011;3464;42.728;23.296;2022-10-16T10:46:31;13.07;;;4.97;;
6850;SDS011;3464;42.728;23.296;2022-10-16T10:49:02;14.53;;;4.50;;
6850;SDS011;3464;42.728;23.296;2022-10-16T10:51:52;14.93;;;4.97;;
6850;SDS011;3464;42.728;23.296;2022-10-16T10:54:23;12.30;;;4.60;;
6850;SDS011;3464;42.728;23.296;2022-10-16T10:56:51;16.63;;;5.30;;
6850;SDS011;3464;42.728;23.296;2022-10-16T10:59:27;11.93;;;4.20;;
6850;SDS011;3464;42.728;23.296;2022-10-16T11:02:04;13.00;;;4.20;;
6850;SDS011;3464;42.728;23.296;2022-10-16T11:07:19;11.30;;;4.30;;
6850;SDS011;3464;42.728;23.296;2022-10-16T11:09:47;12.70;;;4.53;;
6850;SDS011;3464;42.728;23.296;2022-10-16T11:12:17;10.90;;;4.50;;
6850;SDS011;3464;42.728;23.296;2022-10-16T11:14:46;16.17;;;4.70;;
6850;SDS011;3464;42.728;23.296;2022-10-16T11:17:19;12.63;;;4.87;;
6850;SDS011;3464;42.728;23.296;2022-10-16T11:19:46;12.73;;;4.50;;
6850;SDS011;3464;42.728;23.296;2022-10-16T11:22:19;11.47;;;4.47;;
6850;SDS011;3464;42.728;23.296;2022-10-16T11:24:47;12.00;;;4.30;;
6850;SDS011;3464;42.728;23.296;2022-10-16T11:27:16;14.33;;;4.53;;
6850;SDS011;3464;42.728;23.296;2022-10-16T11:29:46;10.83;;;4.30;;
6850;SDS011;3464;42.728;23.296;2022-10-16T11:32:16;13.40;;;4.63;;
6850;SDS011;3464;42.728;23.296;2022-10-16T11:34:53;11.63;;;4.10;;
6850;SDS011;3464;42.728;23.296;2022-10-16T11:37:21;11.10;;;4.23;;
6850;SDS011;3464;42.728;23.296;2022-10-16T11:39:47;11.20;;;3.87;;
6850;SDS011;3464;42.728;23.296;2022-10-16T11:42:16;15.07;;;4.90;;
6850;SDS011;3464;42.728;23.296;2022-10-16T11:44:45;11.50;;;4.13;;
6850;SDS011;3464;42.728;23.296;2022-10-16T11:47:40;12.73;;;4.60;;
6850;SDS011;3464;42.728;23.296;2022-10-16T11:50:25;10.70;;;4.27;;
6850;SDS011;3464;42.728;23.296;2022-10-16T11:52:53;12.63;;;4.57;;
6850;SDS011;3464;42.728;23.296;2022-10-16T11:55:26;10.97;;;4.57;;
6850;SDS011;3464;42.728;23.296;2022-10-16T11:58:06;18.57;;;4.87;;
6850;SDS011;3464;42.728;23.296;2022-10-16T12:00:37;12.83;;;4.37;;
6850;SDS011;3464;42.728;23.296;2022-10-16T12:08:34;11.80;;;4.43;;
6850;SDS011;3464;42.728;23.296;2022-10-16T12:11:08;13.90;;;4.93;;
6850;SDS011;3464;42.728;23.296;2022-10-16T12:13:35;11.27;;;4.60;;
6850;SDS011;3464;42.728;23.296;2022-10-16T12:16:19;10.73;;;3.93;;
6850;SDS011;3464;42.728;23.296;2022-10-16T12:18:34;12.03;;;4.30;;
6850;SDS011;3464;42.728;23.296;2022-10-16T12:21:01;11.80;;;4.50;;
6850;SDS011;3464;42.728;23.296;2022-10-16T12:23:30;11.80;;;4.30;;
6850;SDS011;3464;42.728;23.296;2022-10-16T12:25:58;11.20;;;4.17;;
6850;SDS011;3464;42.728;23.296;2022-10-16T12:28:27;12.63;;;4.90;;
6850;SDS011;3464;42.728;23.296;2022-10-16T12:30:53;12.77;;;3.90;;
6850;SDS011;3464;42.728;23.296;2022-10-16T12:33:22;12.87;;;4.17;;
6850;SDS011;3464;42.728;23.296;2022-10-16T12:35:49;11.83;;;3.90;;
6850;SDS011;3464;42.728;23.296;2022-10-16T12:38:17;11.90;;;3.80;;
6850;SDS011;3464;42.728;23.296;2022-10-16T12:40:44;13.60;;;4.50;;
6850;SDS011;3464;42.728;23.296;2022-10-16T12:43:12;11.23;;;3.97;;
6850;SDS011;3464;42.728;23.296;2022-10-16T12:45:39;13.90;;;4.23;;
6850;SDS011;3464;42.728;23.296;2022-10-16T12:48:18;11.13;;;4.10;;
6850;SDS011;3464;42.728;23.296;2022-10-16T12:50:33;10.40;;;3.60;;
6850;SDS011;3464;42.728;23.296;2022-10-16T12:52:59;17.13;;;4.90;;
6850;SDS011;3464;42.728;23.296;2022-10-16T12:55:25;12.20;;;4.53;;
6850;SDS011;3464;42.728;23.296;2022-10-16T12:58:15;11.50;;;3.60;;
6850;SDS011;3464;42.728;23.296;2022-10-16T13:00:45;11.47;;;4.00;;
6850;SDS011;3464;42.728;23.296;2022-10-16T13:05:57;10.90;;;3.40;;
6850;SDS011;3464;42.728;23.296;2022-10-16T13:08:56;10.20;;;3.30;;
6850;SDS011;3464;42.728;23.296;2022-10-16T13:11:43;10.60;;;3.37;;
6850;SDS011;3464;42.728;23.296;2022-10-16T13:14:18;9.87;;;2.60;;
6850;SDS011;3464;42.728;23.296;2022-10-16T13:17:12;10.63;;;2.90;;
6850;SDS011;3464;42.728;23.296;2022-10-16T13:20:00;9.83;;;2.93;;
6850;SDS011;3464;42.728;23.296;2022-10-16T13:22:45;14.10;;;3.70;;
6850;SDS011;3464;42.728;23.296;2022-10-16T13:27:57;9.70;;;3.00;;
6850;SDS011;3464;42.728;23.296;2022-10-16T13:30:25;10.20;;;3.20;;
6850;SDS011;3464;42.728;23.296;2022-10-16T13:32:56;13.80;;;3.27;;
6850;SDS011;3464;42.728;23.296;2022-10-16T13:35:21;9.80;;;3.27;;
6850;SDS011;3464;42.728;23.296;2022-10-16T13:37:48;12.00;;;3.50;;
6850;SDS011;3464;42.728;23.296;2022-10-16T13:40:18;12.17;;;3.67;;
6850;SDS011;3464;42.728;23.296;2022-10-16T13:42:45;10.80;;;3.23;;
6850;SDS011;3464;42.728;23.296;2022-10-16T13:45:18;9.97;;;3.27;;
6850;SDS011;3464;42.728;23.296;2022-10-16T13:47:43;14.27;;;2.93;;
6850;SDS011;3464;42.728;23.296;2022-10-16T13:50:12;9.20;;;2.90;;
6850;SDS011;3464;42.728;23.296;2022-10-16T13:52:37;13.60;;;3.20;;
6850;SDS011;3464;42.728;23.296;2022-10-16T13:55:04;12.07;;;3.33;;
6850;SDS011;3464;42.728;23.296;2022-10-16T13:57:31;10.77;;;3.30;;
6850;SDS011;3464;42.728;23.296;2022-10-16T13:59:57;11.03;;;3.40;;
6850;SDS011;3464;42.728;23.296;2022-10-16T14:02:27;11.63;;;2.93;;
6850;SDS011;3464;42.728;23.296;2022-10-16T14:04:53;10.73;;;3.43;;
6850;SDS011;3464;42.728;23.296;2022-10-16T14:07:23;11.47;;;3.40;;
6850;SDS011;3464;42.728;23.296;2022-10-16T14:09:49;11.30;;;2.87;;
6850;SDS011;3464;42.728;23.296;2022-10-16T14:12:15;11.03;;;2.80;;
6850;SDS011;3464;42.728;23.296;2022-10-16T14:14:42;11.17;;;3.33;;
6850;SDS011;3464;42.728;23.296;2022-10-16T14:17:16;11.20;;;2.90;;
6850;SDS011;3464;42.728;23.296;2022-10-16T14:19:46;11.60;;;4.20;;
6850;SDS011;3464;42.728;23.296;2022-10-16T14:24:59;10.93;;;3.30;;
6850;SDS011;3464;42.728;23.296;2022-10-16T14:27:34;13.93;;;3.87;;
6850;SDS011;3464;42.728;23.296;2022-10-16T14:30:12;11.40;;;3.70;;
6850;SDS011;3464;42.728;23.296;2022-10-16T14:32:41;12.80;;;3.67;;
6850;SDS011;3464;42.728;23.296;2022-10-16T14:37:50;14.13;;;4.50;;
6850;SDS011;3464;42.728;23.296;2022-10-16T14:40:14;12.53;;;4.50;;
6850;SDS011;3464;42.728;23.296;2022-10-16T14:42:42;11.50;;;3.67;;
6850;SDS011;3464;42.728;23.296;2022-10-16T14:45:07;11.27;;;3.60;;
6850;SDS011;3464;42.728;23.296;2022-10-16T14:47:34;14.03;;;4.50;;
6850;SDS011;3464;42.728;23.296;2022-10-16T14:50:00;10.50;;;3.43;;
6850;SDS011;3464;42.728;23.296;2022-10-16T14:52:27;11.00;;;3.40;;
6850;SDS011;3464;42.728;23.296;2022-10-16T14:54:53;11.07;;;3.73;;
6850;SDS011;3464;42.728;23.296;2022-10-16T14:57:22;12.00;;;3.33;;
6850;SDS011;3464;42.728;23.296;2022-10-16T14:59:48;11.23;;;3.37;;
6850;SDS011;3464;42.728;23.296;2022-10-16T15:02:28;12.80;;;3.80;;
6850;SDS011;3464;42.728;23.296;2022-10-16T15:04:56;11.70;;;3.07;;
6850;SDS011;3464;42.728;23.296;2022-10-16T15:07:23;10.47;;;3.30;;
6850;SDS011;3464;42.728;23.296;2022-10-16T15:09:49;15.07;;;3.93;;
6850;SDS011;3464;42.728;23.296;2022-10-16T15:12:16;12.67;;;3.73;;
6850;SDS011;3464;42.728;23.296;2022-10-16T15:14:42;11.90;;;3.63;;
6850;SDS011;3464;42.728;23.296;2022-10-16T15:17:10;11.97;;;4.03;;
6850;SDS011;3464;42.728;23.296;2022-10-16T15:19:36;11.53;;;3.63;;
6850;SDS011;3464;42.728;23.296;2022-10-16T15:22:03;12.53;;;3.50;;
6850;SDS011;3464;42.728;23.296;2022-10-16T15:24:30;10.67;;;3.40;;
6850;SDS011;3464;42.728;23.296;2022-10-16T15:26:56;13.13;;;3.70;;
6850;SDS011;3464;42.728;23.296;2022-10-16T15:29:23;11.60;;;3.40;;
6850;SDS011;3464;42.728;23.296;2022-10-16T15:31:50;14.00;;;3.70;;